Terminal Aerodrome Forecast
Issued by NWS

Home | Current Version | Previous Version | Text Only | Print | Product List | Glossary On
Versions: 1 2 3 4 5 6 7 8 9 10 11 12 13
000
FTUS45 KRIW 181700
TAFCPR
TAF
KCPR 181720Z 1818/1918 22025G35KT P6SM SCT100 BKN200
     FM182100 23024G34KT P6SM SCT080 BKN120
     FM190100 24016KT P6SM SCT070 BKN110
     FM190600 23014KT P6SM SCT120
     FM191600 23018G25KT P6SM SCT100 BKN150=

USA.gov is the U.S. government's official web portal to all federal, state and local government web resources and services.